Airfield :
LOGIN :

Register | Disclaimer

   EN    FR    IT 

 










Legend :    VFR   Marginal VFR   IFR   Intensive IFR   Very Intensive IFR
Visi :
Ceiling :
>= 8 km
>= 3000ft
5 to 8 km
1000 to 3000 ft
1500m to 5 km
500 to 1000 ft
800 to 1500m
200 to 500 ft
< 800m
< 200 ft
Symbols :   Thunderstorms  Fog  Heavy snow  Heavy precipitations  Wind > 20 kt
SIGMETs :     Misc.  Thunderstorms  Icing  Turbulence  Mountain Waves  Volcanic Ashes






- Airport Elevation : 5600 ft
- IATA code : SMV


LSZS - Samedan

CURRENT METAR :
  • 160950Z 22006KT 9999 FEW018 SCT050 03/M01 Q1018 RMK G TL170

EXPIRED METARs :
  • 160920Z VRB01KT 9999 FEW029 SCT050 02/M01 Q1018 RMK F TL170
  • 160850Z 15001KT 9999 FEW020 SCT050 M00/M02 Q1018 RMK E TL170
  • 160820Z 05004KT 030V100 9999 FEW020 BKN050 M00/M03 Q1018 RMK D TL170
  • 160750Z VRB02KT 9999 FEW020 BKN050 M01/M02 Q1017 RMK C TL170
  • 160720Z VRB02KT 9999 FEW020 BKN050 M00/M01 Q1017 RMK B TL170

TAF TAF LSZS
Valid from the 16 at 09:00 until the 16 at 18:00 UTC


160825Z 1609/1618 VRB02KT 9999 FEW020 BKN050 TX04/1613Z
PROB40
TEMPO 1610/1615 21012KT
ATIS : +41 81 834 93 24



MET'MAP, your aeronautical weather chart ! - Copyright ORBIFLY December 2007 - Disclaimer

ORBIFLY MET'MAP TEAM :

Programming & Development : Alexandra Zaïnal
Concept & original design : Baudouin d'Aumeries
Assistance for programming : Marc-Olivier Méhu
Technical & hardware support : Manuel Goepfert

Contact : metmap@orbifly.com




SOURCES & CREDITS :

   NOAA